Pagrindinis puslapis
METAR-TAF:

METAR-TAF

Oro uostai :

Aberdynas, Škotija

platuma: 57-12N, ilguma: 002-13W, Aukštis: 65 m

Dabartinis oras

Ataskaita buvo paskelbta 26 minutes, ne 18:20 UTC
Vėjas 14 kt iš Pietvakarių
Temperatūra 6°C
Drėgmė 61%
Slėgis 993 hPa
Matomumas 10 km arba daugiau

METAR: EGPD 291820Z AUTO 22014KT 9999 NCD 06/M01 Q0993 NOSIG

Laikas: 18:46 (18:46 UTC)

Prognozė

Ataskaita buvo paskelbta 1 valandą ir 49 minutes, ne 16:57 UTC
Prognozė galioja nuo 29 metu 18 UTC su 01 metu 18 UTC
Vėjas 18 kt iš Pietų/Pietvakarių
Matomumas 10 km arba daugiau
Mažai debesys ne aukštis 2000 ft
Tapsmas
nuo 29 metu 18 UTC su 29 metu 21 UTC
Vėjas 8 kt iš Pietų/Pietvakarių
Tikimybė 30%
nuo 01 metu 00 UTC su 01 metu 07 UTC
Matomumas: 8000 m
Tikimybė 30% :
Laikinai
nuo 01 metu 17 UTC su 01 metu 18 UTC
Su prošvaistėmis ne aukštis 1400 ft

TAF: EGPD 291657Z 2918/0118 21018KT 9999 FEW020 BECMG 2918/2921 20008KT PROB30 0100/0107 8000 PROB30 TEMPO 0117/0118 BKN014

Orai ataskaitas ir orų prognozės (METAR, TAF).

turimą stotys yra geltonos ir raudonos taškus žemėlapyje.

Perkelti pele per norėdami pamatyti stoties vardą.

Tada spustelėkite, norėdami matyti oro stebėjimo ir prognozės.

Norėdami pakeisti žemėlapį: spustelėkite ant žalios mygtukų su juodo kryžiaus žemyn,; žalią mygtuką su brūkšneliu, jei norite nutolinti; arba žalių rodyklių gretimoms žemėlapius.


METAR-TAF: